Jepson Prairie Reserve, California Weather observations

Data are for 10 minute period ending at time listed.
 Day   Time   Solar   Ave.   Ave.  Ave.  Vector  Max.   Baro.   Total    
  of    of     Rad.   Air    Rel.  Wind   Wind   Wind  Press.  Precip.   
Year   Day            Temp.  Hum.  Speed  Dir.   Gust                    
2016   (PST)  Kw/m2    F      %     mph   deg.    mph    mb.     in.     
-------------------------------------------------------------------------
 206   10:10   0.81   95.8    36    7.5   185    11.2   1007.8    0.00 
 206   10:20   0.83   96.5    35    7.5   182    11.8   1007.8    0.00 
 206   10:30   0.85   95.7    34    7.2   185    11.2   1007.8    0.00 
 206   10:40   0.86   95.4    33    5.6   209     9.6   1007.8    0.00 
 206   10:50   0.87   96.5    32    5.7   228     9.1   1007.8    0.00 
 206   11:00   0.89   96.6    30    3.4   178     6.9   1007.8    0.00 
 206   11:10   0.90   97.7    29    3.5   200     8.6   1007.8    0.00 
 206   11:20   0.91   98.4    28    4.5   209     8.3   1007.5    0.00 
 206   11:30   0.91   99.3    28    5.0   195     9.1   1007.5    0.00 
 206   11:40   0.92   99.8    26    4.0   229     9.1   1007.5    0.00 
 206   11:50   0.93  101.1    26    2.9   246     7.2   1007.5    0.00 
 206   12:00   0.93  100.6    26    3.8   221     9.3   1007.5    0.00 
 206   12:10   0.93  101.3    25    4.6   204     8.0   1007.5    0.00 
 206   12:20   0.93  102.1    25    4.8   204    10.2   1007.5    0.00 
 206   12:30   0.93  102.3    25    7.4   232    17.1   1007.5    0.00 
 206   12:40   0.93  101.8    25    5.0   253    10.5   1007.5    0.00 
 206   12:50   0.92  103.6    25    6.2   230    10.6   1007.5    0.00 
 206   13:00   0.91  104.5    25    5.9   201    10.6   1007.1    0.00 
 206   13:10   0.90  101.0    23    4.9   202    10.7   1007.5    0.00 
 206   13:20   0.90  101.5    22    6.6   201    11.4   1007.5    0.00 
 206   13:30   0.88  102.3    23    7.6   195    14.5   1007.5    0.00 
 206   13:40   0.87  102.8    23    9.8   200    19.1   1007.5    0.00 
 206   13:50   0.86  105.1    24    9.9   191    15.9   1007.5    0.00 
 206   14:00   0.84  105.9    24    7.8   196    12.5   1007.5    0.00 
 206   14:10   0.83  106.2    22    7.5   212    12.9   1007.1    0.00 
 206   14:20   0.81  108.8    24    8.8   210    18.0   1007.1    0.00 
 206   14:30   0.79  106.2    23    9.9   234    14.9   1007.1    0.00 
 206   14:40   0.77  106.8    23   12.0   217    17.8   1007.1    0.00 
 206   14:50   0.75  107.3    23   12.6   225    16.9   1007.1    0.00 
 206   15:00   0.73  107.1    22   13.3   222    18.3   1006.8    0.00 
 206   15:10   0.71  107.0    22   13.5   222    19.6   1006.8    0.00 
 206   15:20   0.69  107.5    23   14.3   221    20.0   1006.8    0.00 
 206   15:30   0.66  106.7    23   14.1   222    18.7   1006.8    0.00 
 206   15:40   0.63  106.0    22   15.4   228    18.5   1006.8    0.00 
 206   15:50   0.60  106.1    24   15.1   226    19.0   1006.8    0.00 
 206   16:00   0.57  109.1    26   15.7   227    21.2   1006.8    0.00 
 206   16:10   0.54  108.0    27   18.4   232    22.6   1006.8    0.00 
 206   16:20   0.51  106.9    27   17.6   225    22.1   1006.8    0.00 
 206   16:30   0.48  106.1    27   18.2   226    21.5   1006.4    0.00 
 206   16:40   0.45  105.6    28   17.9   229    21.7   1006.4    0.00 
 206   16:50   0.42  104.5    29   19.1   225    23.3   1006.4    0.00 
 206   17:00   0.39  103.8    30   18.2   227    23.5   1006.4    0.00 
 206   17:10   0.34  103.7    31   20.0   227    26.1   1006.4    0.00 
 206   17:20   0.33  101.3    31   19.1   216    23.9   1006.1    0.00 
 206   17:30   0.30   99.8    31   17.2   214    23.2   1006.1    0.00 
 206   17:40   0.26   99.1    32   16.9   216    21.3   1006.1    0.00 
 206   17:50   0.23   99.0    32   16.1   214    21.0   1006.1    0.00 
 206   18:00   0.20   97.8    33   17.0   217    21.5   1006.1    0.00 
 206   18:10   0.17   96.8    34   18.3   219    23.5   1006.1    0.00 
 206   18:20   0.14   95.5    35   18.2   215    22.7   1006.1    0.00 
 206   18:30   0.12   94.3    36   17.3   214    21.2   1006.1    0.00 
 206   18:40   0.09   94.5    38   15.5   213    18.8   1006.1    0.00 
 206   18:50   0.07   92.9    39   15.9   213    19.4   1006.1    0.00 
 206   19:00   0.04   92.3    41   15.6   210    20.0   1006.1    0.00 
 206   19:10   0.02   89.7    43   15.5   208    21.0   1006.1    0.00 
 206   19:20   0.01   88.7    44   15.1   213    18.6   1006.4    0.00 
 206   19:30   0.00   84.6    45   14.7   206    19.4   1006.4    0.00 
 206   19:40   0.00   88.1    51   14.3   206    18.5   1006.8    0.00 
 206   19:50   0.00   87.1    52   15.0   206    20.0   1006.8    0.00 
 206   20:00   0.00   85.2    54   18.3   205    25.3   1006.8    0.00 
 206   20:10   0.00   79.3    58   17.3   210    22.1   1007.1    0.00 
 206   20:20   0.00   75.0    55   18.3   213    23.0   1007.1    0.00 
 206   20:30   0.00   73.3    54   18.2   213    23.2   1007.1    0.00 
 206   20:40   0.00   72.1    56   17.0   219    21.9   1007.5    0.00 
 206   20:50   0.00   71.2    54   14.2   228    18.6   1007.5    0.00 
 206   21:00   0.00   70.0    54   16.3   229    19.8   1007.5    0.00 
 206   21:10   0.00   69.2    55   18.1   229    23.1   1007.8    0.00 
 206   21:20   0.00   67.9    57   17.1   228    22.0   1007.8    0.00 
 206   21:30   0.00   66.9    59   17.4   225    21.8   1007.8    0.00 
 206   21:40   0.00   66.5    60   17.6   226    23.3   1007.8    0.00 
 206   21:50   0.00   65.2    62   18.8   228    23.5   1007.8    0.00 
 206   22:00   0.00   64.4    64   20.2   225    26.0   1007.8    0.00 
 206   22:10   0.00   64.1    64   21.8   222    28.1   1007.8    0.00 
 206   22:20   0.00   63.8    65   22.9   224    28.6   1007.8    0.00 
 206   22:30   0.00   63.1    66   23.0   226    30.0   1007.8    0.00 
 206   22:40   0.00   62.4    68   23.5   226    29.5   1007.8    0.00 
 206   22:50   0.00   61.7    70   24.0   225    30.3   1007.8    0.00 
 206   23:00   0.00   61.3    70   24.2   229    29.6   1007.8    0.00 
 206   23:10   0.00   60.6    72   24.1   229    30.8   1007.8    0.00 
 206   23:20   0.00   60.1    73   22.8   230    27.5   1007.8    0.00 
 206   23:30   0.00   59.5    74   22.4   229    27.1   1007.8    0.00 
 206   23:40   0.00   59.1    75   23.0   230    29.5   1007.8    0.00 
 206   23:50   0.00   58.8    77   24.2   229    29.7   1007.5    0.00 
 207    0:00   0.00   58.6    77   24.4   232    30.0   1007.5    0.00 
 207    0:10   0.00   58.7    77   24.0   231    29.1   1007.5    0.00 
 207    0:20   0.00   58.3    78   23.1   229    29.1   1007.5    0.00 
 207    0:30   0.00   58.2    78   23.1   227    29.0   1007.5    0.00 
 207    0:40   0.00   58.2    78   23.8   228    28.9   1007.5    0.00 
 207    0:50   0.00   58.1    79   23.9   228    30.2   1007.5    0.00 
 207    1:00   0.00   58.1    79   23.7   228    29.8   1007.5    0.00 
 207    1:10   0.00   57.9    79   24.8   229    29.9   1007.5    0.00 
 207    1:20   0.00   57.7    80   24.6   227    31.4   1007.5    0.00 
 207    1:30   0.00   57.5    82   25.1   229    31.0   1007.5    0.00 
 207    1:40   0.00   57.2    83   25.7   228    31.4   1007.5    0.00 
 207    1:50   0.00   57.2    84   25.1   227    31.4   1007.5    0.00 
 207    2:00   0.00   57.2    84   24.1   228    32.1   1007.5    0.00 
 207    2:10   0.00   57.1    85   21.1   224    27.2   1007.8    0.00 
 207    2:20   0.00   56.8    85   20.4   222    25.0   1007.8    0.00 
 207    2:30   0.00   56.6    86   20.7   223    26.7   1007.8    0.00 
 207    2:40   0.00   56.5    86   20.9   225    26.7   1007.8    0.00 
 207    2:50   0.00   56.2    87   21.9   226    26.8   1007.8    0.00 
 207    3:00   0.00   56.0    88   20.5   227    25.4   1007.8    0.00 
 207    3:10   0.00   56.0    88   21.0   225    27.4   1008.1    0.00 
 207    3:20   0.00   56.0    89   19.3   223    26.1   1008.1    0.00 
 207    3:30   0.00   55.9    89   19.5   223    25.7   1008.1    0.00 
 207    3:40   0.00   55.9    89   21.1   222    26.3   1008.1    0.00 
 207    3:50   0.00   55.7    90   20.9   221    27.0   1008.1    0.00 
 207    4:00   0.00   55.6    90   20.1   219    25.1   1008.5    0.00 
 207    4:10   0.00   55.6    90   19.8   219    25.1   1008.5    0.00 
 207    4:20   0.00   55.5    90   19.4   218    25.7   1008.5    0.00 
 207    4:30   0.00   55.4    90   18.4   219    23.3   1008.5    0.00 
 207    4:40   0.00   55.5    90   18.1   219    24.0   1008.8    0.00 
 207    4:50   0.00   55.5    90   18.5   220    23.4   1008.8    0.00 
 207    5:00   0.00   55.3    90   16.3   221    20.5   1008.8    0.00 
 207    5:10   0.00   55.4    90   16.4   223    21.8   1008.8    0.00 
 207    5:20   0.01   55.3    90   17.8   224    22.8   1009.1    0.00 
 207    5:30   0.02   55.3    90   17.6   226    22.3   1009.1    0.00 
 207    5:40   0.05   55.6    90   16.2   228    21.0   1009.1    0.00 
 207    5:50   0.07   56.0    90   18.0   230    22.8   1009.5    0.00 
 207    6:00   0.11   56.7    90   17.5   233    22.9   1009.5    0.00 
 207    6:10   0.14   57.3    89   17.1   230    22.3   1009.5    0.00 
 207    6:20   0.17   57.9    88   17.7   227    23.4   1009.8    0.00 
 207    6:30   0.20   58.5    86   19.0   226    23.7   1009.8    0.00 
 207    6:40   0.23   59.3    84   19.0   227    23.4   1009.8    0.00 
 207    6:50   0.26   60.1    82   18.9   228    23.6   1009.8    0.00 
 207    7:00   0.29   60.8    80   19.0   225    23.7   1009.8    0.00 
 207    7:10   0.33   62.0    78   18.7   227    24.3   1009.8    0.00 
 207    7:20   0.36   63.2    75   18.1   228    23.1   1010.2    0.00 
 207    7:30   0.39   64.4    73   17.9   228    22.7   1010.5    0.00 
 207    7:40   0.42   65.0    70   20.5   227    25.1   1010.5    0.00 
 207    7:50   0.45   65.8    69   19.0   232    23.3   1010.5    0.00 
 207    8:00   0.48   67.1    66   17.6   231    22.2   1010.8    0.00 
 207    8:10   0.51   67.6    65   18.4   231    23.1   1010.8    0.00 
 207    8:20   0.54   68.5    64   17.5   230    21.0   1010.8    0.00 
 207    8:30   0.57   70.2    61   16.3   230    20.1   1011.2    0.00 
 207    8:40   0.60   71.3    59   15.3   233    18.8   1011.2    0.00 
 207    8:50   0.63   72.6    57   14.6   234    17.7   1011.2    0.00 
 207    9:00   0.66   73.9    55   14.1   225    17.8   1011.2    0.00 
 207    9:10   0.68   75.0    53   14.4   227    17.7   1011.2    0.00 
 207    9:20   0.71   75.7    53   13.8   228    17.8   1011.2    0.00 
 207    9:30   0.73   77.4    51   12.8   227    16.8   1011.2    0.00 
 207    9:40   0.76   78.2    49   13.2   226    17.3   1011.2    0.00 
 207    9:50   0.78   79.0    49   12.6   226    17.0   1011.2    0.00 
 207   10:00   0.80   79.7    48   13.3   219    18.5   1011.2    0.00 

Return to Jepson Prairie Reserve graphs page.


Western Regional Climate Center,wrcc@dri.edu